Addenbroke Island, British Columbia

7:29 AM PDT on June 30, 2015 (GMT -0700)
Pruth Bay | | Change Station
CLOSE
Current Station
Personal Weather Station
Location: British Columbia, BRITISH COLUMBIA
Elevation: 26 ft
Nearby Weather Stations

Elev 26 ft 51.65 °N, 128.13 °W | Updated 1 minute ago

Overcast
Overcast
57.9 °F
Feels Like 57.9 °F
N
4.8
Wind Variable Wind from WNW
Gusts 9.2 mph

Today
High -- | Low -- °F
--% Chance of Precip.
Yesterday
High -- | Low -- °F
Precip. -- in
5:17 AM 9:52 PM
Waxing Gibbous, 97% visible
Pressure 30.14 in
Visibility 9.0 miles
Clouds Mostly Cloudy 10000 ft
Overcast 12000 ft
Dew Point 54 °F
Humidity 87%
Rainfall in
Snow Depth Not available.
UV 0 out of 12
Pollen Not available.
Air Quality Not available.
Flu Activity Not available.
METAR CBBC 301200Z AUTO 29004KT 250V330 9SM BKN100 OVC120 15/13 A3014 RMK SLP207

More Conditions Fewer Conditions

Pressure 30.14 in
Visibility 9.0 miles
Clouds Mostly Cloudy 10000 ft
Overcast 12000 ft
Dew Point 54 °F
Humidity 87%
Rainfall in
Snow Depth Not available.
UV 0 out of 12
Pollen Not available.
Air Quality Not available.
Flu Activity Not available.
METAR CBBC 301200Z AUTO 29004KT 250V330 9SM BKN100 OVC120 15/13 A3014 RMK SLP207

More Conditions Fewer Conditions

10-Day Weather Forecast

×

Almanac

Astronomy

Jun. 30, 2015 Rise Set
Actual Time
Civil Twilight
Nautical Twilight
Astronomical Twilight
Moon
Length of Visible Light
Length of Day
Tomorrow will be .
, % of the Moon is Illuminated

Today's Extremes

Country Highs Country Lows

Community

WunderPhotos

Upload Photos

1,834,008 photos uploaded!

WunderBlogs® & News

Nearby

Air Quality

  Air Quality AQ Index Pollutant
Not available.

Snow Depth

Station Depth Elevation

Earthquake Activity

City Distance Mag. Time & Date
Minimum magnitude displayed is 2.5.

Coastal Water Temperatures

Place Temperature

Stations

Nearby Weather Stations

Station Location Temp. Windchill Dew Point Humidity Wind Precip. Elev Updated Type